Time;durP1;ratioP1;P1;durP2;ratioP2;P2;SDS_P1;SDS_P2;PMS_P1;PMS_P2;Temp;Humidity;BMP_temperature;BMP_pressure;BME280_temperature;BME280_humidity;BME280_pressure;Samples;Min_cycle;Max_cycle;Signal;HPM_P1;HPM_P2
2022/09/17 00:00:58;;;;;;;5.33;1.60;;;11.40;99.90;;;;;;5038589;28;20469;-72
2022/09/17 00:03:24;;;;;;;2.27;1.40;;;11.30;99.90;;;;;;5036865;28;20172;-72
2022/09/17 00:05:59;;;;;;;4.00;1.67;;;11.40;99.90;;;;;;5042547;28;20690;-73
2022/09/17 00:08:25;;;;;;;4.10;1.90;;;11.40;99.90;;;;;;5042290;28;20410;-73
2022/09/17 00:10:50;;;;;;;5.53;2.37;;;11.40;99.90;;;;;;5048309;28;20469;-73
2022/09/17 00:13:16;;;;;;;2.43;1.67;;;11.40;99.90;;;;;;5046057;28;20194;-73
2022/09/17 00:15:43;;;;;;;4.97;1.80;;;11.40;99.90;;;;;;5036518;28;20180;-73
2022/09/17 00:18:10;;;;;;;2.87;1.50;;;11.40;99.90;;;;;;5037828;28;20198;-73
2022/09/17 00:20:44;;;;;;;6.13;2.57;;;11.40;99.90;;;;;;5037465;28;20441;-73
2022/09/17 00:23:10;;;;;;;6.73;1.90;;;11.50;99.90;;;;;;5043398;28;20421;-73
2022/09/17 00:25:41;;;;;;;3.70;1.67;;;11.40;99.90;;;;;;5044835;28;20402;-73
2022/09/17 00:28:07;;;;;;;2.10;1.60;;;11.50;99.90;;;;;;5044307;28;20441;-73
2022/09/17 00:30:33;;;;;;;4.70;2.10;;;11.50;99.90;;;;;;5043598;28;20432;-73
2022/09/17 00:32:59;;;;;;;6.57;2.37;;;11.50;99.90;;;;;;5042439;28;20422;-74
2022/09/17 00:35:25;;;;;;;2.93;2.70;;;11.50;99.90;;;;;;5043791;28;20422;-74
2022/09/17 00:37:51;;;;;;;3.30;3.00;;;11.50;99.90;;;;;;5043071;28;20376;-73
2022/09/17 00:40:18;;;;;;;5.00;3.90;;;11.50;99.90;;;;;;5044695;28;20531;-72
2022/09/17 00:42:44;;;;;;;5.10;2.67;;;11.60;99.90;;;;;;5038264;28;20203;-73
2022/09/17 00:45:10;;;;;;;6.00;2.47;;;11.50;99.90;;;;;;5037023;28;20540;-72
2022/09/17 00:47:40;;;;;;;4.97;2.40;;;11.50;99.90;;;;;;5037060;28;20453;-73
2022/09/17 00:50:22;;;;;;;6.90;2.00;;;11.50;99.90;;;;;;5036640;28;20494;-73
2022/09/17 00:52:58;;;;;;;3.47;1.83;;;11.60;99.90;;;;;;5036749;28;20417;-73
2022/09/17 00:55:29;;;;;;;5.10;1.90;;;11.60;99.90;;;;;;5037211;28;20391;-74
2022/09/17 00:57:57;;;;;;;3.53;1.87;;;11.60;99.90;;;;;;5036513;28;20505;-73
2022/09/17 01:00:24;;;;;;;5.67;2.00;;;11.60;99.90;;;;;;5037089;28;20514;-72
2022/09/17 01:02:52;;;;;;;5.83;2.30;;;11.60;99.90;;;;;;5035827;28;20787;-73
2022/09/17 01:05:46;;;;;;;3.47;1.70;;;11.60;99.90;;;;;;5038090;28;20413;-73
2022/09/17 01:08:40;;;;;;;5.13;2.47;;;11.60;99.90;;;;;;5033826;28;20465;-73
2022/09/17 01:11:29;;;;;;;3.80;2.40;;;11.60;99.90;;;;;;5041505;28;20461;-74
2022/09/17 01:14:32;;;;;;;3.43;3.13;;;11.70;99.90;;;;;;5043243;28;20847;-73
2022/09/17 01:17:06;;;;;;;12.27;3.50;;;11.60;99.90;;;;;;5036737;28;20402;-73
2022/09/17 01:19:46;;;;;;;6.57;2.53;;;11.70;99.90;;;;;;5036899;28;20398;-72
2022/09/17 01:22:20;;;;;;;4.57;2.10;;;11.60;99.90;;;;;;5036030;28;20394;-73
2022/09/17 01:25:06;;;;;;;7.40;3.37;;;11.70;99.90;;;;;;5036897;28;20440;-73
2022/09/17 01:28:06;;;;;;;8.70;4.20;;;11.70;99.90;;;;;;5037070;28;20481;-73
2022/09/17 01:31:03;;;;;;;7.57;3.50;;;11.70;99.90;;;;;;5020633;28;20484;-73
2022/09/17 01:33:40;;;;;;;5.27;4.63;;;11.70;99.90;;;;;;5003697;28;20426;-73
2022/09/17 01:36:39;;;;;;;5.03;3.53;;;11.80;99.90;;;;;;5037153;28;20413;-73
2022/09/17 01:39:17;;;;;;;7.87;3.20;;;11.70;99.90;;;;;;5027815;28;20421;-72
2022/09/17 01:41:52;;;;;;;12.00;3.23;;;11.80;99.90;;;;;;5038092;28;20432;-72
2022/09/17 01:44:34;;;;;;;10.70;3.40;;;11.80;99.90;;;;;;5037190;28;20877;-72
2022/09/17 01:47:41;;;;;;;6.27;3.67;;;11.80;99.90;;;;;;5038330;28;20485;-73
2022/09/17 01:50:12;;;;;;;3.90;2.40;;;11.80;99.90;;;;;;5000148;28;20516;-73
2022/09/17 01:52:40;;;;;;;5.23;2.63;;;11.80;99.90;;;;;;5018214;28;20830;-73
2022/09/17 01:55:12;;;;;;;4.00;2.70;;;11.80;99.90;;;;;;5018326;28;20853;-74
2022/09/17 01:58:00;;;;;;;11.50;4.33;;;11.80;99.90;;;;;;5018655;28;20898;-73
2022/09/17 02:00:26;;;;;;;6.40;4.50;;;11.80;99.90;;;;;;5017489;28;20534;-73
2022/09/17 02:03:03;;;;;;;8.60;5.17;;;11.80;99.90;;;;;;5017511;28;21001;-72
2022/09/17 02:05:43;;;;;;;6.70;4.53;;;11.90;99.90;;;;;;5030558;28;20908;-74
2022/09/17 02:08:22;;;;;;;5.30;4.80;;;11.80;99.90;;;;;;5042223;28;20453;-73
2022/09/17 02:10:54;;;;;;;7.93;4.87;;;11.80;99.90;;;;;;5041085;28;20449;-73
2022/09/17 02:13:29;;;;;;;7.67;5.93;;;11.80;99.90;;;;;;5037566;28;20418;-72
2022/09/17 02:16:06;;;;;;;9.40;6.27;;;11.80;99.90;;;;;;5035415;28;20433;-72
2022/09/17 02:18:44;;;;;;;7.87;5.63;;;11.90;99.90;;;;;;5035448;28;20398;-72
2022/09/17 02:21:30;;;;;;;6.13;5.00;;;11.80;99.90;;;;;;5035707;28;20792;-72
2022/09/17 02:24:13;;;;;;;9.97;5.60;;;11.80;99.90;;;;;;5035459;28;20394;-73
2022/09/17 02:26:56;;;;;;;8.33;5.80;;;11.90;99.90;;;;;;5017491;28;20508;-72
2022/09/17 02:29:42;;;;;;;7.23;3.80;;;11.80;99.90;;;;;;5035271;28;20402;-72
2022/09/17 02:32:09;;;;;;;6.03;3.30;;;11.80;99.90;;;;;;5035399;28;20394;-72
2022/09/17 02:34:35;;;;;;;6.43;3.37;;;11.80;99.90;;;;;;5035162;28;20473;-73
2022/09/17 02:37:03;;;;;;;6.23;2.40;;;11.80;99.90;;;;;;5034956;28;20897;-73
2022/09/17 02:39:28;;;;;;;3.90;1.83;;;11.80;99.90;;;;;;5034683;28;20639;-72
2022/09/17 02:42:11;;;;;;;2.67;2.20;;;11.80;99.90;;;;;;5035061;28;20418;-72
2022/09/17 02:44:37;;;;;;;3.53;2.00;;;11.80;99.90;;;;;;5034827;28;20687;-72
2022/09/17 02:47:27;;;;;;;3.60;2.30;;;11.80;99.90;;;;;;5034787;28;20562;-72
2022/09/17 02:50:00;;;;;;;6.20;2.63;;;11.80;99.90;;;;;;5034774;28;20418;-72
2022/09/17 02:53:00;;;;;;;5.57;2.53;;;11.70;99.90;;;;;;5035172;28;20409;-72
2022/09/17 02:55:49;;;;;;;6.27;2.00;;;11.80;99.90;;;;;;5035036;28;20423;-72
2022/09/17 02:58:15;;;;;;;3.03;2.20;;;11.80;99.90;;;;;;5036747;28;20908;-72
2022/09/17 03:00:42;;;;;;;4.37;2.73;;;11.80;99.90;;;;;;5040386;28;20433;-72
2022/09/17 03:03:14;;;;;;;4.47;2.53;;;11.90;99.90;;;;;;5034435;28;20171;-72
2022/09/17 03:05:41;;;;;;;5.33;3.10;;;11.80;99.90;;;;;;5034494;28;20946;-73
2022/09/17 03:08:11;;;;;;;5.50;2.43;;;11.70;99.90;;;;;;5034158;28;20442;-73
2022/09/17 03:10:37;;;;;;;7.07;3.20;;;11.80;99.90;;;;;;5034222;28;20792;-73
2022/09/17 03:13:02;;;;;;;5.50;3.97;;;11.80;99.90;;;;;;5034131;28;20481;-73
2022/09/17 03:15:28;;;;;;;7.13;5.53;;;11.80;99.90;;;;;;5034047;28;20202;-73
2022/09/17 03:17:54;;;;;;;7.90;5.67;;;11.80;99.90;;;;;;5034210;28;20509;-73
2022/09/17 03:20:20;;;;;;;7.40;5.20;;;11.80;99.90;;;;;;5033802;28;20438;-72
2022/09/17 03:22:46;;;;;;;14.00;5.57;;;11.80;99.90;;;;;;5034647;28;20182;-71
2022/09/17 03:25:12;;;;;;;10.23;5.30;;;11.90;99.90;;;;;;5034976;28;20182;-72
2022/09/17 03:27:37;;;;;;;9.60;4.97;;;11.80;99.90;;;;;;5035980;28;21022;-73
2022/09/17 03:30:05;;;;;;;8.30;6.40;;;11.90;99.90;;;;;;5034622;28;20431;-72
2022/09/17 03:32:30;;;;;;;14.37;5.40;;;11.90;99.90;;;;;;5033966;28;20170;-72
2022/09/17 03:34:56;;;;;;;5.80;5.20;;;11.90;99.90;;;;;;5033968;28;20403;-73
2022/09/17 03:37:21;;;;;;;11.20;5.27;;;11.90;99.90;;;;;;5034058;28;20172;-73
2022/09/17 03:39:47;;;;;;;11.73;5.40;;;11.90;99.90;;;;;;5033952;28;20223;-73
2022/09/17 03:42:12;;;;;;;6.20;5.67;;;11.90;99.90;;;;;;5033959;28;20241;-72
2022/09/17 03:44:38;;;;;;;8.77;4.23;;;11.90;99.90;;;;;;5033582;28;20164;-73
2022/09/17 03:47:04;;;;;;;10.03;6.07;;;11.90;99.90;;;;;;5033732;28;20248;-72
2022/09/17 03:49:29;;;;;;;4.30;3.90;;;12.00;99.90;;;;;;5038313;28;20171;-73
2022/09/17 03:51:55;;;;;;;6.67;4.80;;;11.90;99.90;;;;;;5044283;28;20199;-73
2022/09/17 03:54:20;;;;;;;8.20;4.53;;;12.00;99.90;;;;;;5043656;28;20450;-73
2022/09/17 03:56:46;;;;;;;5.17;4.27;;;12.00;99.90;;;;;;5037767;28;20167;-72
2022/09/17 03:59:11;;;;;;;8.03;3.20;;;12.00;99.90;;;;;;5033436;28;20183;-73
2022/09/17 04:01:37;;;;;;;6.33;3.57;;;12.00;99.90;;;;;;5033575;28;20788;-72
2022/09/17 04:04:03;;;;;;;4.03;3.20;;;12.00;99.90;;;;;;5033593;28;20206;-72
2022/09/17 04:06:29;;;;;;;7.87;2.47;;;12.00;99.90;;;;;;5015704;28;20203;-72
2022/09/17 04:08:55;;;;;;;5.30;2.63;;;12.00;99.90;;;;;;5033485;28;20176;-73
2022/09/17 04:11:21;;;;;;;11.17;2.57;;;12.10;99.90;;;;;;5033108;28;20221;-73
2022/09/17 04:13:47;;;;;;;7.00;2.10;;;12.00;99.90;;;;;;5033358;28;20398;-73
2022/09/17 04:16:13;;;;;;;4.93;2.50;;;12.00;99.90;;;;;;5033362;28;20409;-72
2022/09/17 04:18:39;;;;;;;6.50;3.20;;;12.00;99.90;;;;;;5033110;28;20629;-73
2022/09/17 04:21:05;;;;;;;6.77;2.77;;;12.00;99.90;;;;;;5032913;28;20425;-72
2022/09/17 04:23:30;;;;;;;5.13;2.30;;;12.00;99.90;;;;;;5032940;28;20167;-72
2022/09/17 04:25:56;;;;;;;5.70;3.63;;;12.00;99.90;;;;;;5032991;28;20164;-72
2022/09/17 04:28:22;;;;;;;4.87;2.67;;;12.00;99.90;;;;;;5032875;28;20446;-72
2022/09/17 04:30:48;;;;;;;5.20;2.40;;;12.00;99.90;;;;;;5031946;28;20267;-72
2022/09/17 04:33:14;;;;;;;10.90;2.63;;;12.10;99.90;;;;;;5033066;28;20225;-72
2022/09/17 04:35:39;;;;;;;8.87;3.77;;;12.10;99.90;;;;;;5032903;28;20513;-73
2022/09/17 04:38:05;;;;;;;7.53;2.70;;;12.10;99.90;;;;;;5032694;28;20967;-72
2022/09/17 04:40:31;;;;;;;7.50;2.67;;;12.10;99.90;;;;;;5032918;28;20556;-77
2022/09/17 04:42:58;;;;;;;5.60;2.90;;;12.10;99.90;;;;;;5032986;28;20196;-74
2022/09/17 04:45:25;;;;;;;9.50;3.90;;;12.10;99.90;;;;;;5037506;28;20178;-71
2022/09/17 04:47:50;;;;;;;10.40;3.87;;;12.10;99.90;;;;;;5036463;28;20533;-71
2022/09/17 04:50:17;;;;;;;5.50;3.87;;;12.10;99.90;;;;;;5032549;28;20567;-73
2022/09/17 04:52:44;;;;;;;8.53;3.33;;;12.10;99.90;;;;;;5032493;28;20254;-73
2022/09/17 04:55:10;;;;;;;6.33;3.70;;;12.20;99.90;;;;;;5032487;28;20402;-72
2022/09/17 04:57:36;;;;;;;8.23;2.97;;;12.20;99.90;;;;;;5032560;28;20752;-72
2022/09/17 05:00:03;;;;;;;4.97;2.90;;;12.20;99.90;;;;;;5032264;28;20441;-72
2022/09/17 05:02:29;;;;;;;5.93;3.07;;;12.20;99.90;;;;;;5032299;28;20198;-72
2022/09/17 05:04:55;;;;;;;7.50;3.00;;;12.20;99.90;;;;;;5032139;28;20414;-72
2022/09/17 05:07:21;;;;;;;5.63;3.17;;;12.30;99.90;;;;;;5032081;28;20195;-72
2022/09/17 05:09:47;;;;;;;5.33;3.37;;;12.30;99.90;;;;;;5031949;28;20418;-72
2022/09/17 05:12:12;;;;;;;6.60;3.03;;;12.30;99.90;;;;;;5032261;28;20172;-73
2022/09/17 05:14:38;;;;;;;3.97;2.63;;;12.30;99.90;;;;;;5032054;28;20213;-72
2022/09/17 05:17:03;;;;;;;7.77;2.73;;;12.30;99.90;;;;;;5032210;28;20175;-72
2022/09/17 05:19:29;;;;;;;5.03;3.27;;;12.20;99.90;;;;;;5032085;28;20168;-72
2022/09/17 05:21:55;;;;;;;9.60;4.60;;;12.20;99.90;;;;;;5032370;28;20164;-72
2022/09/17 05:24:20;;;;;;;8.87;4.40;;;12.30;99.90;;;;;;5032433;28;20413;-72
2022/09/17 05:26:46;;;;;;;5.57;3.20;;;12.30;99.90;;;;;;5032106;28;20196;-72
2022/09/17 05:29:11;;;;;;;5.90;2.93;;;12.30;99.90;;;;;;5014546;28;20171;-73
2022/09/17 05:31:37;;;;;;;6.43;2.83;;;12.30;99.90;;;;;;5032260;28;20183;-72
2022/09/17 05:34:02;;;;;;;7.50;4.43;;;12.40;99.90;;;;;;5032170;28;20187;-72
2022/09/17 05:36:28;;;;;;;4.90;4.00;;;12.40;99.90;;;;;;5032417;28;20190;-74
2022/09/17 05:38:53;;;;;;;8.93;3.83;;;12.40;99.90;;;;;;5033106;28;20197;-73
2022/09/17 05:41:19;;;;;;;6.20;3.37;;;12.50;99.90;;;;;;5033541;28;20187;-73
2022/09/17 05:43:45;;;;;;;12.07;3.57;;;12.40;99.90;;;;;;5040485;28;20172;-72
2022/09/17 05:46:10;;;;;;;6.80;3.20;;;12.40;99.90;;;;;;5041261;28;20526;-72
2022/09/17 05:48:36;;;;;;;7.57;2.87;;;12.50;99.90;;;;;;5040706;28;20160;-72
2022/09/17 05:51:01;;;;;;;5.97;3.30;;;12.50;99.90;;;;;;5024426;28;20217;-73
2022/09/17 05:53:27;;;;;;;7.97;3.70;;;12.60;99.90;;;;;;5042795;28;20175;-73
2022/09/17 05:55:57;;;;;;;8.77;3.90;;;12.60;99.90;;;;;;5043993;28;20203;-73
2022/09/17 05:58:23;;;;;;;4.60;4.00;;;12.60;99.90;;;;;;5041296;28;20194;-73
2022/09/17 06:00:49;;;;;;;5.23;2.80;;;12.60;99.90;;;;;;5039043;28;20430;-73
2022/09/17 06:03:16;;;;;;;8.43;3.43;;;12.50;99.90;;;;;;5040544;28;20183;-73
2022/09/17 06:05:42;;;;;;;11.90;4.60;;;12.50;99.90;;;;;;5019749;28;20437;-74
2022/09/17 06:08:09;;;;;;;6.20;2.90;;;12.50;99.90;;;;;;5036721;28;20449;-73
2022/09/17 06:10:38;;;;;;;4.80;3.10;;;12.60;99.90;;;;;;5035588;28;20445;-72
2022/09/17 06:13:04;;;;;;;4.40;2.00;;;12.70;99.90;;;;;;5035665;28;20919;-73
2022/09/17 06:15:29;;;;;;;7.93;3.77;;;12.70;99.90;;;;;;5035452;28;20407;-73
2022/09/17 06:17:55;;;;;;;7.80;3.50;;;12.80;99.90;;;;;;5035446;28;20422;-72
2022/09/17 06:20:21;;;;;;;11.30;2.63;;;12.70;99.90;;;;;;5035305;28;20199;-72
2022/09/17 06:22:47;;;;;;;3.67;2.57;;;12.70;99.90;;;;;;5035512;28;20446;-73
2022/09/17 06:25:12;;;;;;;7.23;1.80;;;12.70;99.90;;;;;;5035562;28;20793;-73
2022/09/17 06:27:38;;;;;;;5.10;2.57;;;12.80;99.90;;;;;;5037021;28;20204;-74
2022/09/17 06:30:04;;;;;;;8.17;2.60;;;12.80;99.90;;;;;;5038287;28;20212;-73
2022/09/17 06:32:32;;;;;;;6.47;3.33;;;12.90;99.90;;;;;;5040690;28;20171;-72
2022/09/17 06:34:57;;;;;;;6.40;1.90;;;12.90;99.90;;;;;;5035080;28;20449;-72
2022/09/17 06:37:30;;;;;;;10.70;3.83;;;12.70;99.90;;;;;;5035061;28;20410;-72
2022/09/17 06:39:58;;;;;;;10.63;3.83;;;12.90;99.90;;;;;;5034888;28;20218;-71
2022/09/17 06:42:24;;;;;;;5.17;2.37;;;12.90;99.90;;;;;;5035505;28;20779;-72
2022/09/17 06:44:50;;;;;;;5.87;3.77;;;13.00;99.90;;;;;;5035853;28;20409;-73
2022/09/17 06:47:15;;;;;;;11.80;4.60;;;13.20;99.90;;;;;;5035774;28;20450;-74
2022/09/17 06:49:41;;;;;;;9.40;2.73;;;13.20;99.90;;;;;;5035220;28;20704;-72
2022/09/17 06:52:06;;;;;;;6.93;3.10;;;13.00;99.90;;;;;;5035028;28;20573;-73
2022/09/17 06:54:32;;;;;;;9.47;3.03;;;13.00;99.90;;;;;;5034138;28;20260;-73
2022/09/17 06:56:58;;;;;;;10.20;3.27;;;13.00;99.90;;;;;;5034764;28;20765;-73
2022/09/17 06:59:24;;;;;;;4.43;2.17;;;12.90;99.90;;;;;;5035051;28;20589;-73
2022/09/17 07:01:49;;;;;;;5.23;2.87;;;12.90;99.90;;;;;;5034687;28;20617;-73
2022/09/17 07:04:17;;;;;;;6.30;2.03;;;12.90;99.90;;;;;;5034906;28;20430;-73
2022/09/17 07:06:43;;;;;;;14.40;2.73;;;12.90;99.90;;;;;;5034811;28;20607;-72
2022/09/17 07:09:10;;;;;;;4.63;2.30;;;12.90;99.90;;;;;;5035051;28;20939;-72
2022/09/17 07:11:36;;;;;;;4.07;2.33;;;12.90;99.90;;;;;;5034572;28;20592;-73
2022/09/17 07:14:03;;;;;;;6.40;2.13;;;12.90;99.90;;;;;;5034945;28;20513;-73
2022/09/17 07:16:31;;;;;;;9.03;3.00;;;12.80;99.90;;;;;;5034353;28;20406;-73
2022/09/17 07:18:57;;;;;;;15.97;2.90;;;12.80;99.90;;;;;;5034045;28;20414;-73
2022/09/17 07:21:23;;;;;;;7.63;2.80;;;12.80;99.90;;;;;;5016373;28;20431;-72
2022/09/17 07:23:50;;;;;;;3.80;2.43;;;12.80;99.90;;;;;;5034267;28;20164;-74
2022/09/17 07:26:16;;;;;;;5.57;2.57;;;12.80;99.90;;;;;;5049034;28;20178;-73
2022/09/17 07:28:43;;;;;;;8.73;2.10;;;13.00;99.90;;;;;;5054364;28;20401;-73
2022/09/17 07:31:09;;;;;;;4.40;1.80;;;13.00;99.90;;;;;;5054415;28;20187;-73
2022/09/17 07:33:36;;;;;;;7.50;2.30;;;13.00;99.90;;;;;;5053989;28;20587;-73
2022/09/17 07:36:04;;;;;;;8.17;2.03;;;13.00;99.90;;;;;;5053786;28;20436;-73
2022/09/17 07:38:30;;;;;;;10.57;3.27;;;13.30;99.90;;;;;;5053873;28;20412;-73
2022/09/17 07:41:04;;;;;;;6.40;2.23;;;13.30;99.90;;;;;;5053702;28;20487;-73
2022/09/17 07:43:33;;;;;;;5.50;1.80;;;13.10;99.90;;;;;;5053828;28;20409;-73
2022/09/17 07:46:00;;;;;;;5.17;1.80;;;13.20;99.90;;;;;;5053711;28;20406;-72
2022/09/17 07:48:27;;;;;;;4.13;1.63;;;13.10;99.90;;;;;;5053861;28;20445;-73
2022/09/17 07:50:52;;;;;;;7.80;2.10;;;13.30;99.90;;;;;;5053774;28;20429;-74
2022/09/17 07:53:18;;;;;;;3.57;1.93;;;13.30;99.90;;;;;;5053848;28;20492;-73
2022/09/17 07:55:55;;;;;;;7.00;2.47;;;13.30;99.90;;;;;;5053477;28;20503;-73
2022/09/17 07:58:22;;;;;;;2.53;1.60;;;13.30;99.90;;;;;;5053239;28;20413;-73
2022/09/17 08:00:48;;;;;;;5.40;1.60;;;13.50;99.90;;;;;;5053648;28;20429;-73
2022/09/17 08:03:13;;;;;;;6.13;2.27;;;13.60;99.90;;;;;;5061768;28;20409;-73
2022/09/17 08:05:39;;;;;;;5.27;2.13;;;13.60;99.90;;;;;;5060842;28;20428;-73
2022/09/17 08:08:04;;;;;;;8.20;1.60;;;13.40;99.90;;;;;;5058203;28;20191;-73
2022/09/17 08:10:30;;;;;;;7.60;1.63;;;13.40;99.90;;;;;;5052854;28;20688;-73
2022/09/17 08:12:57;;;;;;;7.93;2.63;;;13.50;99.90;;;;;;5041088;23;20961;-66
2022/09/17 08:15:23;;;;;;;6.07;2.10;;;13.40;99.90;;;;;;5032349;28;20247;-66
2022/09/17 08:17:49;;;;;;;9.37;2.33;;;13.60;99.90;;;;;;5032918;28;20402;-67
2022/09/17 08:20:16;;;;;;;4.47;1.40;;;13.70;99.90;;;;;;5032517;28;20421;-66
2022/09/17 08:22:42;;;;;;;10.03;1.90;;;13.80;99.90;;;;;;5032358;28;20487;-66
2022/09/17 08:25:08;;;;;;;5.07;2.17;;;13.80;99.90;;;;;;5032419;28;20403;-65
2022/09/17 08:27:36;;;;;;;6.03;2.13;;;14.40;99.90;;;;;;5032169;28;20821;-66
2022/09/17 08:30:02;;;;;;;6.67;1.83;;;14.70;99.90;;;;;;5032040;28;20459;-66
2022/09/17 08:32:29;;;;;;;5.40;2.00;;;15.00;99.90;;;;;;5032368;28;20432;-66
2022/09/17 08:34:54;;;;;;;5.67;2.13;;;15.40;99.90;;;;;;5032053;28;20418;-66
2022/09/17 08:37:20;;;;;;;3.87;1.53;;;16.10;99.90;;;;;;5032124;28;20938;-66
2022/09/17 08:39:45;;;;;;;4.57;2.10;;;16.20;99.90;;;;;;5032050;28;20185;-65
2022/09/17 08:42:26;;;;;;;4.87;1.57;;;16.20;99.90;;;;;;5031960;28;20678;-66
2022/09/17 08:44:55;;;;;;;3.00;1.13;;;15.10;99.90;;;;;;5031949;28;20629;-66
2022/09/17 08:47:37;;;;;;;6.40;1.80;;;16.10;99.90;;;;;;5032177;28;20480;-66
2022/09/17 08:50:16;;;;;;;2.77;1.80;;;15.90;99.90;;;;;;5031941;28;20521;-66
2022/09/17 08:53:07;;;;;;;4.23;1.73;;;16.30;99.90;;;;;;5031789;28;20427;-66
2022/09/17 08:55:53;;;;;;;3.10;1.20;;;16.60;99.90;;;;;;5031813;28;20493;-67
2022/09/17 08:58:30;;;;;;;2.33;1.37;;;17.10;99.90;;;;;;5031968;28;20853;-66
2022/09/17 09:01:20;;;;;;;3.97;1.50;;;17.10;99.90;;;;;;5031964;28;20479;-68
2022/09/17 09:04:21;;;;;;;3.57;1.47;;;17.30;99.90;;;;;;5031978;28;20428;-68
2022/09/17 09:07:11;;;;;;;3.50;1.60;;;17.30;99.90;;;;;;5012043;28;20446;-68
2022/09/17 09:09:47;;;;;;;3.53;2.30;;;17.80;99.90;;;;;;5012167;28;20398;-67
2022/09/17 09:12:23;;;;;;;5.70;1.73;;;16.70;99.90;;;;;;5012016;28;20405;-67
2022/09/17 09:14:55;;;;;;;2.30;1.57;;;16.70;99.90;;;;;;5011950;28;20427;-67
2022/09/17 09:17:27;;;;;;;4.60;1.67;;;15.90;99.90;;;;;;5018968;28;20464;-67
2022/09/17 09:19:55;;;;;;;4.07;1.77;;;15.70;99.90;;;;;;5031678;28;20422;-67
2022/09/17 09:22:58;;;;;;;6.83;2.57;;;16.10;99.90;;;;;;5031601;28;20415;-68
2022/09/17 09:25:26;;;;;;;7.00;1.93;;;15.90;99.90;;;;;;5014292;28;20862;-67
2022/09/17 09:27:59;;;;;;;4.00;1.40;;;16.60;99.90;;;;;;5031490;28;20513;-66
2022/09/17 09:30:29;;;;;;;23.60;13.30;;;16.10;99.90;;;;;;5031764;28;20430;-66
2022/09/17 09:32:59;;;;;;;19.30;6.70;;;16.40;99.90;;;;;;5031789;28;20857;-67
2022/09/17 09:35:28;;;;;;;4.13;2.03;;;16.40;99.90;;;;;;5031222;28;20420;-67
2022/09/17 09:38:08;;;;;;;2.80;1.40;;;16.60;99.90;;;;;;5031518;28;20421;-67
2022/09/17 09:41:06;;;;;;;7.13;1.23;;;16.40;99.90;;;;;;5031535;28;20450;-67
2022/09/17 09:43:39;;;;;;;5.57;3.30;;;16.10;99.90;;;;;;5031768;28;20798;-68
2022/09/17 09:46:23;;;;;;;6.93;1.60;;;15.80;99.90;;;;;;5031548;28;20498;-68
2022/09/17 09:49:23;;;;;;;9.10;4.47;;;15.80;99.90;;;;;;5031557;28;20471;-67
2022/09/17 09:52:15;;;;;;;4.17;2.37;;;15.90;99.90;;;;;;5031621;28;20495;-67
2022/09/17 09:54:53;;;;;;;2.60;1.60;;;15.70;99.90;;;;;;5031438;28;20890;-67
2022/09/17 09:57:37;;;;;;;9.40;4.03;;;15.30;99.90;;;;;;5031434;28;20416;-67
2022/09/17 10:00:34;;;;;;;3.73;2.13;;;15.40;99.90;;;;;;5031511;28;20404;-67
2022/09/17 10:03:14;;;;;;;4.67;1.87;;;15.60;99.90;;;;;;5031656;28;20415;-66
2022/09/17 10:05:58;;;;;;;11.33;5.10;;;15.40;99.90;;;;;;5030940;28;20411;-67
2022/09/17 10:08:24;;;;;;;4.23;1.73;;;15.70;99.90;;;;;;5031360;28;20882;-67
2022/09/17 10:11:05;;;;;;;5.73;2.10;;;15.60;99.90;;;;;;5031368;28;20403;-67
2022/09/17 10:13:37;;;;;;;2.40;1.30;;;16.00;99.90;;;;;;5027988;28;20448;-67
2022/09/17 10:16:18;;;;;;;4.93;1.70;;;16.00;99.90;;;;;;5030864;28;20534;-66
2022/09/17 10:18:46;;;;;;;2.87;1.27;;;16.00;99.90;;;;;;5030990;28;20443;-66
2022/09/17 10:21:33;;;;;;;3.17;1.57;;;15.90;99.90;;;;;;5031068;28;21152;-67
2022/09/17 10:24:01;;;;;;;1.93;1.17;;;15.90;99.90;;;;;;5031038;28;20454;-67
2022/09/17 10:26:31;;;;;;;3.93;0.80;;;15.90;99.90;;;;;;5030137;28;20404;-66
2022/09/17 10:28:59;;;;;;;4.37;1.20;;;15.80;99.90;;;;;;5031223;28;20452;-67
2022/09/17 10:31:24;;;;;;;5.67;1.40;;;16.10;99.90;;;;;;5034296;28;20491;-66
2022/09/17 10:33:52;;;;;;;5.07;2.13;;;16.60;99.90;;;;;;5034496;28;20432;-68
2022/09/17 10:36:37;;;;;;;4.47;1.47;;;16.40;99.90;;;;;;5034139;28;20214;-67
2022/09/17 10:39:21;;;;;;;3.43;1.47;;;15.10;99.90;;;;;;5034333;28;20829;-67
2022/09/17 10:42:01;;;;;;;6.00;1.50;;;15.10;99.90;;;;;;5034293;28;20413;-67
2022/09/17 10:44:29;;;;;;;2.97;1.70;;;14.40;99.90;;;;;;5034199;28;21141;-67
2022/09/17 10:47:03;;;;;;;5.30;1.37;;;14.20;99.90;;;;;;5034176;28;20806;-68
2022/09/17 10:49:46;;;;;;;8.10;1.93;;;14.30;99.90;;;;;;5033977;28;20473;-68
2022/09/17 10:52:33;;;;;;;2.93;1.30;;;14.50;99.90;;;;;;5034092;28;20872;-68
2022/09/17 10:55:17;;;;;;;3.70;1.30;;;14.70;99.90;;;;;;5033819;28;20402;-68
2022/09/17 10:58:08;;;;;;;3.87;1.80;;;14.90;99.90;;;;;;5034071;28;20401;-68
2022/09/17 11:01:03;;;;;;;7.73;2.20;;;15.40;99.90;;;;;;5033891;28;20427;-67
2022/09/17 11:03:44;;;;;;;3.60;1.70;;;15.60;99.90;;;;;;5028998;28;20940;-67
2022/09/17 11:06:38;;;;;;;3.10;2.00;;;15.60;99.90;;;;;;5014241;28;20906;-67
2022/09/17 11:09:25;;;;;;;4.33;2.27;;;15.30;99.90;;;;;;5006933;28;20425;-67
2022/09/17 11:12:02;;;;;;;5.77;1.97;;;15.70;99.90;;;;;;5014608;28;20405;-67
2022/09/17 11:14:46;;;;;;;2.97;1.70;;;15.90;99.90;;;;;;5013809;28;20808;-66
2022/09/17 11:17:30;;;;;;;6.50;3.97;;;15.70;99.90;;;;;;5014204;28;20804;-66
2022/09/17 11:20:04;;;;;;;3.17;1.23;;;15.70;99.90;;;;;;5016773;28;20409;-67
2022/09/17 11:23:04;;;;;;;5.93;2.00;;;15.70;99.90;;;;;;5013992;28;20425;-66
2022/09/17 11:25:53;;;;;;;8.63;1.93;;;16.20;99.90;;;;;;5023602;28;20403;-67
2022/09/17 11:28:49;;;;;;;4.60;1.27;;;15.80;99.90;;;;;;5030086;28;20469;-66
2022/09/17 11:31:29;;;;;;;5.03;1.60;;;15.80;99.90;;;;;;5033522;28;20403;-65
2022/09/17 11:34:34;;;;;;;3.53;1.33;;;16.00;99.90;;;;;;5025327;28;20460;-66
2022/09/17 11:37:28;;;;;;;4.10;2.00;;;16.30;99.90;;;;;;5013223;28;20668;-66
2022/09/17 11:39:59;;;;;;;2.50;1.23;;;16.10;99.90;;;;;;4996328;28;20458;-67
2022/09/17 11:42:40;;;;;;;1.30;1.10;;;15.80;99.90;;;;;;5027871;28;20522;-67
2022/09/17 11:45:15;;;;;;;3.17;1.80;;;15.20;99.90;;;;;;5013512;28;20395;-68
2022/09/17 11:47:49;;;;;;;2.50;1.50;;;15.00;99.90;;;;;;5013075;28;20455;-67
2022/09/17 11:50:28;;;;;;;1.20;1.03;;;15.00;99.90;;;;;;5032610;28;20760;-67
2022/09/17 11:52:56;;;;;;;3.27;1.80;;;14.80;99.90;;;;;;5032880;28;20468;-67
2022/09/17 11:55:46;;;;;;;4.73;1.60;;;14.60;99.90;;;;;;5032879;28;20456;-67
2022/09/17 11:58:42;;;;;;;5.87;1.53;;;14.90;99.90;;;;;;5032658;28;20405;-67
2022/09/17 12:01:43;;;;;;;4.30;1.43;;;15.10;99.90;;;;;;5033055;28;20494;-67
2022/09/17 12:04:33;;;;;;;2.90;1.30;;;15.40;99.90;;;;;;5032719;28;20425;-67
2022/09/17 12:07:04;;;;;;;3.87;2.23;;;15.90;99.90;;;;;;5032593;28;20448;-66
2022/09/17 12:09:35;;;;;;;4.67;1.23;;;16.00;99.90;;;;;;5032737;28;20396;-65
2022/09/17 12:12:22;;;;;;;2.80;1.47;;;16.00;99.90;;;;;;5032690;28;20411;-66
2022/09/17 12:14:53;;;;;;;1.90;1.10;;;16.20;99.90;;;;;;5032437;28;20910;-67
2022/09/17 12:17:33;;;;;;;2.20;1.50;;;16.00;99.90;;;;;;5032664;28;20404;-67
2022/09/17 12:20:08;;;;;;;4.60;2.00;;;16.00;99.90;;;;;;5031271;28;20995;-67
2022/09/17 12:22:38;;;;;;;2.50;1.67;;;15.90;99.90;;;;;;5026853;28;20424;-66
2022/09/17 12:25:05;;;;;;;3.27;1.00;;;15.60;99.90;;;;;;5028465;28;20416;-66
2022/09/17 12:27:40;;;;;;;6.03;2.37;;;15.60;99.90;;;;;;5028275;28;20454;-66
2022/09/17 12:30:13;;;;;;;1.47;1.33;;;15.50;99.90;;;;;;5030777;28;20419;-66
2022/09/17 12:32:52;;;;;;;2.50;1.20;;;16.00;99.90;;;;;;5031744;28;20601;-67
2022/09/17 12:35:32;;;;;;;2.23;1.30;;;16.30;99.90;;;;;;5020302;28;20498;-67
2022/09/17 12:38:46;;;;;;;2.70;1.37;;;16.80;99.90;;;;;;5032193;28;20510;-66
2022/09/17 12:41:40;;;;;;;2.90;1.60;;;16.40;99.90;;;;;;5012824;28;20960;-67
2022/09/17 12:44:34;;;;;;;3.93;1.70;;;16.90;99.90;;;;;;5012337;28;20450;-66
2022/09/17 12:47:11;;;;;;;2.80;1.03;;;16.80;99.90;;;;;;5012301;28;20457;-66
2022/09/17 12:49:49;;;;;;;2.70;1.43;;;17.00;99.90;;;;;;5012392;28;20416;-66
2022/09/17 12:52:26;;;;;;;2.80;1.47;;;17.10;99.90;;;;;;5011514;28;20399;-66
2022/09/17 12:55:18;;;;;;;2.50;1.27;;;16.90;99.90;;;;;;5012185;28;20397;-66
2022/09/17 12:58:06;;;;;;;2.30;1.23;;;16.90;99.90;;;;;;5012361;28;20409;-66
2022/09/17 13:00:45;;;;;;;3.40;1.20;;;16.80;99.90;;;;;;5030385;28;20411;-66
2022/09/17 13:03:22;;;;;;;5.33;1.40;;;16.50;99.90;;;;;;5031935;28;20426;-66
2022/09/17 13:06:27;;;;;;;3.10;1.20;;;16.50;99.90;;;;;;5031773;28;20413;-67
2022/09/17 13:09:02;;;;;;;2.03;1.33;;;15.80;99.90;;;;;;5031855;28;20478;-67
2022/09/17 13:11:30;;;;;;;3.17;1.57;;;16.00;99.90;;;;;;5032035;28;20408;-67
2022/09/17 13:14:30;;;;;;;3.07;1.03;;;16.30;99.90;;;;;;5031729;28;20442;-67
2022/09/17 13:17:20;;;;;;;5.33;1.67;;;16.60;99.90;;;;;;5031576;28;20402;-67